Time;durP1;ratioP1;P1;durP2;ratioP2;P2;SDS_P1;SDS_P2;PMS_P1;PMS_P2;Temp;Humidity;BMP_temperature;BMP_pressure;BME280_temperature;BME280_humidity;BME280_pressure;Samples;Min_cycle;Max_cycle;Signal;HPM_P1;HPM_P2
2021/12/09 00:01:07;;;;;;;16.65;13.30;;;-0.90;99.90;;;;;;7383354;19;20348;-81
2021/12/09 00:03:50;;;;;;;17.33;13.13;;;-0.90;99.90;;;;;;7279814;19;2004584;-82
2021/12/09 00:06:20;;;;;;;22.15;14.63;;;-0.90;99.90;;;;;;7363936;19;20841;-82
2021/12/09 00:09:07;;;;;;;19.80;13.77;;;-0.90;99.90;;;;;;7277143;19;2004528;-80
2021/12/09 00:11:41;;;;;;;19.40;14.73;;;-0.90;99.90;;;;;;7388158;19;20321;-81
2021/12/09 00:14:46;;;;;;;19.80;13.90;;;-0.90;99.90;;;;;;7276323;19;2004580;-82
2021/12/09 00:17:14;;;;;;;22.60;15.65;;;-0.90;99.90;;;;;;7249501;19;2004685;-80
2021/12/09 00:19:40;;;;;;;23.30;14.95;;;-0.80;99.90;;;;;;7384968;19;20324;-80
2021/12/09 00:22:06;;;;;;;20.60;13.53;;;-0.90;99.90;;;;;;7383073;19;20346;-82
2021/12/09 00:24:55;;;;;;;19.33;13.43;;;-0.90;99.90;;;;;;7383612;19;20335;-81
2021/12/09 00:27:21;;;;;;;18.83;14.43;;;-0.90;99.90;;;;;;7257319;19;2004307;-82
2021/12/09 00:29:47;;;;;;;21.42;15.27;;;-0.90;99.90;;;;;;7381872;19;20345;-82
2021/12/09 00:32:37;;;;;;;19.07;14.53;;;-1.00;99.90;;;;;;7217710;19;2004565;-80
2021/12/09 00:38:05;;;;;;;18.80;12.20;;;-0.90;99.90;;;;;;7383411;19;20341;-81
2021/12/09 00:40:31;;;;;;;17.38;13.15;;;-0.90;99.90;;;;;;7384758;19;20308;-81
2021/12/09 00:42:57;;;;;;;19.33;13.35;;;-0.90;99.90;;;;;;7386328;19;20304;-81
2021/12/09 00:45:24;;;;;;;25.85;15.95;;;-0.90;99.90;;;;;;7384718;19;20353;-80
2021/12/09 00:47:51;;;;;;;15.70;13.27;;;-1.00;99.90;;;;;;7384444;19;20300;-81
2021/12/09 00:50:19;;;;;;;24.42;14.55;;;-0.90;99.90;;;;;;7383732;19;20341;-81
2021/12/09 00:52:45;;;;;;;14.18;12.00;;;-0.90;99.90;;;;;;7383970;19;20329;-82
2021/12/09 00:55:11;;;;;;;17.00;12.98;;;-1.00;99.90;;;;;;7376425;19;21210;-82
2021/12/09 00:57:39;;;;;;;15.77;11.88;;;-0.90;99.90;;;;;;7389571;19;20308;-81
2021/12/09 01:00:20;;;;;;;16.90;13.25;;;-0.90;99.90;;;;;;7386898;19;20349;-81
2021/12/09 01:02:46;;;;;;;19.42;13.15;;;-0.90;99.90;;;;;;7389158;19;20345;-81
2021/12/09 01:05:13;;;;;;;17.00;12.68;;;-0.90;99.90;;;;;;7369387;19;20724;-82
2021/12/09 01:07:44;;;;;;;16.15;13.52;;;-0.80;99.90;;;;;;7388242;19;20293;-84
2021/12/09 01:10:13;;;;;;;17.90;13.25;;;-0.90;99.90;;;;;;7387300;19;20353;-82
2021/12/09 01:12:39;;;;;;;18.23;13.60;;;-0.90;99.90;;;;;;7385197;19;20355;-80
2021/12/09 01:15:10;;;;;;;15.40;13.17;;;-0.90;99.90;;;;;;7384968;19;20325;-82
2021/12/09 01:17:54;;;;;;;18.80;13.75;;;-0.90;99.90;;;;;;7383438;19;20690;-80
2021/12/09 01:20:28;;;;;;;21.20;14.47;;;-1.10;99.90;;;;;;7369674;19;20336;-81
2021/12/09 01:23:07;;;;;;;17.33;13.70;;;-1.00;99.90;;;;;;7257127;19;2004757;-80
2021/12/09 01:28:49;;;;;;;17.75;13.75;;;-1.00;99.90;;;;;;7379727;19;20323;-80
2021/12/09 01:31:28;;;;;;;21.20;14.88;;;-1.00;99.90;;;;;;7281227;19;2005029;-79
2021/12/09 01:33:59;;;;;;;23.92;13.98;;;-1.00;99.90;;;;;;7375793;19;20320;-80
2021/12/09 01:36:26;;;;;;;17.45;13.23;;;-1.00;99.90;;;;;;7380594;19;20341;-80
2021/12/09 01:39:12;;;;;;;18.13;12.93;;;-1.00;99.90;;;;;;7328690;19;20869;-80
2021/12/09 01:42:10;;;;;;;21.60;14.27;;;-1.00;99.90;;;;;;7380234;19;20668;-80
2021/12/09 01:44:55;;;;;;;21.17;13.20;;;-1.00;99.90;;;;;;7384233;19;21171;-79
2021/12/09 01:47:21;;;;;;;18.08;13.52;;;-1.00;99.90;;;;;;7383442;19;20316;-82
2021/12/09 01:49:47;;;;;;;18.90;14.50;;;-0.90;99.90;;;;;;7383795;19;20752;-80
2021/12/09 01:52:13;;;;;;;13.82;12.30;;;-1.00;99.90;;;;;;7362490;19;20340;-80
2021/12/09 01:54:39;;;;;;;17.17;13.32;;;-1.00;99.90;;;;;;7383689;19;20324;-82
2021/12/09 01:57:06;;;;;;;17.38;12.98;;;-1.00;99.90;;;;;;7381513;19;20318;-80
2021/12/09 01:59:32;;;;;;;22.02;14.32;;;-1.00;99.90;;;;;;7281783;19;20321;-80
2021/12/09 02:01:57;;;;;;;17.83;12.93;;;-1.00;99.90;;;;;;7379654;19;20311;-81
2021/12/09 02:04:23;;;;;;;21.83;13.80;;;-1.00;99.90;;;;;;7391512;19;20325;-79
2021/12/09 02:06:49;;;;;;;18.38;13.68;;;-0.90;99.90;;;;;;7392637;19;20719;-80
2021/12/09 02:09:15;;;;;;;17.42;11.68;;;-0.90;99.90;;;;;;7384405;19;20688;-80
2021/12/09 02:11:57;;;;;;;18.60;13.55;;;-1.00;99.90;;;;;;7395931;19;20317;-80
2021/12/09 02:14:23;;;;;;;16.65;13.45;;;-1.00;99.90;;;;;;7395335;19;20617;-80
2021/12/09 02:16:48;;;;;;;14.85;12.77;;;-0.90;99.90;;;;;;7396003;19;20406;-80
2021/12/09 02:19:15;;;;;;;20.87;13.37;;;-0.90;99.90;;;;;;7392494;19;20324;-80
2021/12/09 02:21:42;;;;;;;20.08;13.88;;;-0.80;99.90;;;;;;7399078;19;20724;-80
2021/12/09 02:24:14;;;;;;;16.05;12.80;;;-0.90;99.90;;;;;;7398420;19;20352;-79
2021/12/09 02:26:42;;;;;;;14.70;11.60;;;-0.90;99.90;;;;;;7391953;19;20678;-80
2021/12/09 02:29:09;;;;;;;21.63;14.10;;;-0.90;99.90;;;;;;7396178;19;20319;-82
2021/12/09 02:31:35;;;;;;;14.17;10.87;;;-0.90;99.90;;;;;;7393788;19;20336;-78
2021/12/09 02:34:01;;;;;;;17.33;12.77;;;-0.90;99.90;;;;;;7392368;19;20352;-79
2021/12/09 02:36:26;;;;;;;16.55;12.25;;;-0.90;99.90;;;;;;7394685;19;21154;-80
2021/12/09 02:38:53;;;;;;;18.77;12.13;;;-1.00;99.90;;;;;;7389273;19;20313;-81
2021/12/09 02:41:23;;;;;;;17.67;12.48;;;-0.90;99.90;;;;;;7390155;19;20969;-81
2021/12/09 02:43:52;;;;;;;19.67;13.45;;;-1.00;99.90;;;;;;7392346;19;20661;-80
2021/12/09 02:46:20;;;;;;;17.75;11.95;;;-0.90;99.90;;;;;;7389247;19;20401;-83
2021/12/09 02:48:46;;;;;;;17.47;12.23;;;-0.90;99.90;;;;;;7389665;19;20381;-80
2021/12/09 02:51:12;;;;;;;17.27;13.07;;;-0.90;99.90;;;;;;7389623;19;20329;-80
2021/12/09 02:53:38;;;;;;;16.08;12.70;;;-1.00;99.90;;;;;;7385668;19;20731;-80
2021/12/09 02:56:04;;;;;;;21.08;12.90;;;-0.90;99.90;;;;;;7386597;19;20889;-80
2021/12/09 02:58:30;;;;;;;17.83;13.02;;;-1.00;99.90;;;;;;7385426;19;20329;-80
2021/12/09 03:01:26;;;;;;;21.40;13.17;;;-0.80;99.90;;;;;;7385231;19;20343;-80
2021/12/09 03:03:56;;;;;;;22.95;13.70;;;-0.90;99.90;;;;;;7269570;19;2004410;-80
2021/12/09 03:06:31;;;;;;;19.83;13.98;;;-1.00;99.90;;;;;;7389461;19;20649;-79
2021/12/09 03:09:02;;;;;;;20.93;13.97;;;-1.00;99.90;;;;;;7286989;19;2004421;-80
2021/12/09 03:11:29;;;;;;;16.88;12.63;;;-1.00;99.90;;;;;;7388500;19;20310;-79
2021/12/09 03:13:55;;;;;;;19.17;13.33;;;-1.00;99.90;;;;;;7386261;19;20452;-80
2021/12/09 03:16:22;;;;;;;20.10;13.67;;;-1.10;99.90;;;;;;7391220;19;20317;-81
2021/12/09 03:18:56;;;;;;;17.85;13.05;;;-1.00;99.90;;;;;;7370922;19;20340;-80
2021/12/09 03:21:27;;;;;;;17.73;12.80;;;-0.90;99.90;;;;;;7392693;19;20340;-80
2021/12/09 03:23:54;;;;;;;17.70;13.25;;;-0.90;99.90;;;;;;7388081;19;20313;-80
2021/12/09 03:26:25;;;;;;;19.70;13.80;;;-0.90;99.90;;;;;;7390825;19;20336;-79
2021/12/09 03:28:55;;;;;;;18.92;13.27;;;-0.90;99.90;;;;;;7289017;19;2004650;-82
2021/12/09 03:31:21;;;;;;;21.17;14.32;;;-0.90;99.90;;;;;;7387500;19;20313;-80
2021/12/09 03:33:48;;;;;;;16.35;11.27;;;-1.00;99.90;;;;;;7390995;19;20293;-81
2021/12/09 03:36:14;;;;;;;19.85;13.60;;;-1.00;99.90;;;;;;7405746;19;20301;-81
2021/12/09 03:38:40;;;;;;;21.37;14.57;;;-0.90;99.90;;;;;;7394830;19;20320;-80
2021/12/09 03:41:07;;;;;;;21.23;13.32;;;-1.00;99.90;;;;;;7392845;19;20376;-81
2021/12/09 03:47:05;;;;;;;14.73;11.95;;;-0.90;99.90;;;;;;7179167;19;2004444;-80
2021/12/09 03:49:31;;;;;;;15.13;12.50;;;-0.90;99.90;;;;;;7337846;19;20351;-80
2021/12/09 03:51:58;;;;;;;15.13;12.07;;;-0.80;99.90;;;;;;7392135;19;20301;-81
2021/12/09 03:54:25;;;;;;;14.73;11.82;;;-0.90;99.90;;;;;;7389523;19;20303;-80
2021/12/09 03:56:51;;;;;;;17.93;12.30;;;-0.90;99.90;;;;;;7391996;19;20312;-79
2021/12/09 03:59:16;;;;;;;17.67;13.73;;;-0.90;99.90;;;;;;7389588;19;20305;-78
2021/12/09 04:01:43;;;;;;;17.60;13.90;;;-1.00;99.90;;;;;;7389288;19;20356;-79
2021/12/09 04:04:09;;;;;;;19.98;12.93;;;-1.00;99.90;;;;;;7388165;19;20317;-80
2021/12/09 04:06:35;;;;;;;19.67;12.55;;;-1.00;99.90;;;;;;7386329;19;20327;-80
2021/12/09 04:09:01;;;;;;;17.83;12.85;;;-1.00;99.90;;;;;;7378143;19;20669;-79
2021/12/09 04:11:28;;;;;;;20.08;13.55;;;-1.00;99.90;;;;;;7384236;19;20336;-80
2021/12/09 04:13:54;;;;;;;18.55;12.38;;;-1.00;99.90;;;;;;7389111;19;20379;-80
2021/12/09 04:16:20;;;;;;;21.63;14.37;;;-1.00;99.90;;;;;;7389175;19;20826;-78
2021/12/09 04:18:46;;;;;;;21.63;12.45;;;-1.00;99.90;;;;;;7388145;19;20392;-80
2021/12/09 04:21:13;;;;;;;17.58;13.00;;;-1.00;99.90;;;;;;7388647;19;20360;-80
2021/12/09 04:23:39;;;;;;;17.87;12.93;;;-1.00;99.90;;;;;;7385274;19;20305;-80
2021/12/09 04:26:06;;;;;;;18.88;14.45;;;-1.00;99.90;;;;;;7385783;19;20854;-80
2021/12/09 04:28:33;;;;;;;18.77;12.98;;;-1.10;99.90;;;;;;7387802;19;20337;-79
2021/12/09 04:30:59;;;;;;;17.08;13.40;;;-1.10;99.90;;;;;;7386827;19;20328;-83
2021/12/09 04:33:25;;;;;;;20.63;13.95;;;-1.10;99.90;;;;;;7388636;19;20301;-82
2021/12/09 04:36:11;;;;;;;14.37;11.77;;;-1.10;99.90;;;;;;7387534;19;20340;-82
2021/12/09 04:39:25;;;;;;;20.40;13.57;;;-1.00;99.90;;;;;;7237090;19;2004674;-82
2021/12/09 04:42:35;;;;;;;13.65;11.77;;;-1.00;99.90;;;;;;7181463;19;2004603;-83
2021/12/09 04:45:30;;;;;;;19.00;13.30;;;-1.00;99.90;;;;;;7147165;19;2004416;-83
2021/12/09 04:48:58;;;;;;;20.15;13.55;;;-1.00;99.90;;;;;;7190829;19;2008510;-80
2021/12/09 04:52:40;;;;;;;15.13;10.23;;;-1.10;99.90;;;;;;7137864;19;2004479;-83
2021/12/09 04:56:10;;;;;;;17.88;12.70;;;-1.00;99.90;;;;;;7184167;19;2004442;-83
2021/12/09 04:58:41;;;;;;;13.90;12.10;;;-1.00;99.90;;;;;;7154575;19;2004462;-85
2021/12/09 05:01:07;;;;;;;14.52;12.10;;;-1.00;99.90;;;;;;7387194;19;20309;-82
2021/12/09 05:03:44;;;;;;;15.52;11.68;;;-0.80;99.90;;;;;;7366829;19;20347;-80
2021/12/09 05:06:10;;;;;;;24.95;12.80;;;-0.90;99.90;;;;;;7384966;19;20336;-81
2021/12/09 05:08:38;;;;;;;15.47;12.93;;;-0.90;99.90;;;;;;7386999;19;20301;-81
2021/12/09 05:11:12;;;;;;;17.42;11.40;;;-0.80;99.90;;;;;;7389170;19;20867;-81
2021/12/09 05:13:38;;;;;;;13.75;10.63;;;-0.90;99.90;;;;;;7388898;19;20327;-80
2021/12/09 05:16:05;;;;;;;15.00;11.77;;;-0.90;99.90;;;;;;7389986;19;20765;-78
2021/12/09 05:18:32;;;;;;;17.27;12.70;;;-0.90;99.90;;;;;;7384664;19;20324;-81
2021/12/09 05:20:58;;;;;;;15.73;12.70;;;-0.90;99.90;;;;;;7383849;19;20305;-79
2021/12/09 05:23:24;;;;;;;19.37;13.57;;;-0.90;99.90;;;;;;7383956;19;20301;-81
2021/12/09 05:25:49;;;;;;;20.50;14.90;;;-1.00;99.90;;;;;;7384598;19;20356;-81
2021/12/09 05:28:16;;;;;;;15.60;12.07;;;-1.00;99.90;;;;;;7383283;19;20317;-81
2021/12/09 05:33:28;;;;;;;17.03;12.03;;;-1.10;99.90;;;;;;7282926;19;2010713;-82
2021/12/09 05:35:54;;;;;;;16.90;12.67;;;-0.90;99.90;;;;;;7386824;19;20328;-80
2021/12/09 05:38:19;;;;;;;18.40;13.13;;;-1.00;99.90;;;;;;7391288;19;20362;-81
2021/12/09 05:41:02;;;;;;;21.00;14.45;;;-1.00;99.90;;;;;;7338128;19;20340;-84
2021/12/09 05:43:28;;;;;;;20.38;12.82;;;-1.00;99.90;;;;;;7268320;19;2010484;-81
2021/12/09 05:45:57;;;;;;;18.70;13.47;;;-1.00;99.90;;;;;;7375196;19;20368;-82
2021/12/09 05:48:44;;;;;;;20.23;13.60;;;-1.00;99.90;;;;;;7393625;19;20336;-83
2021/12/09 05:51:34;;;;;;;19.33;14.25;;;-1.00;99.90;;;;;;7227173;19;2004261;-82
2021/12/09 05:54:41;;;;;;;19.30;13.77;;;-1.10;99.90;;;;;;7116873;19;2004462;-81
2021/12/09 05:57:47;;;;;;;16.10;12.45;;;-1.10;99.90;;;;;;7219224;19;2004496;-81
2021/12/09 06:00:51;;;;;;;17.63;12.68;;;-1.10;99.90;;;;;;7313457;19;20311;-81
2021/12/09 06:04:13;;;;;;;20.67;14.23;;;-1.10;99.90;;;;;;7231860;19;2004561;-85
2021/12/09 06:07:45;;;;;;;17.63;13.20;;;-1.10;99.90;;;;;;7070362;19;2004488;-80
2021/12/09 06:11:19;;;;;;;20.30;14.77;;;-1.10;99.90;;;;;;7271452;19;20354;-81
2021/12/09 06:14:14;;;;;;;16.53;13.33;;;-1.10;99.90;;;;;;7244402;19;2004373;-82
2021/12/09 06:17:31;;;;;;;18.73;13.37;;;-1.10;99.90;;;;;;7216214;19;2004608;-78
2021/12/09 06:20:47;;;;;;;16.88;13.48;;;-1.20;99.90;;;;;;7298746;19;2004479;-79
2021/12/09 06:23:48;;;;;;;18.40;14.68;;;-1.20;99.90;;;;;;7207909;19;2004448;-80
2021/12/09 06:26:18;;;;;;;18.23;13.85;;;-1.20;99.90;;;;;;7374934;19;20301;-80
2021/12/09 06:32:02;;;;;;;13.88;12.27;;;-1.20;99.90;;;;;;7347407;19;20415;-81
2021/12/09 06:34:29;;;;;;;15.95;12.60;;;-1.20;99.90;;;;;;7396591;19;20325;-80
2021/12/09 06:36:55;;;;;;;19.13;14.13;;;-1.20;99.90;;;;;;7397619;19;20372;-80
2021/12/09 06:39:21;;;;;;;17.30;12.43;;;-1.20;99.90;;;;;;7389215;19;20366;-81
2021/12/09 06:41:47;;;;;;;18.80;13.95;;;-1.20;99.90;;;;;;7328801;19;20343;-81
2021/12/09 06:44:43;;;;;;;21.33;15.93;;;-1.10;99.90;;;;;;7341387;19;20317;-80
2021/12/09 06:47:32;;;;;;;17.63;13.85;;;-1.30;99.90;;;;;;7392432;19;20697;-80
2021/12/09 06:49:58;;;;;;;18.80;13.70;;;-1.30;99.90;;;;;;7385926;19;20321;-80
2021/12/09 06:52:26;;;;;;;20.77;14.50;;;-1.30;99.90;;;;;;7391991;19;20309;-80
2021/12/09 06:54:52;;;;;;;18.38;14.32;;;-1.30;99.90;;;;;;7390325;19;20316;-81
2021/12/09 06:57:18;;;;;;;20.13;14.73;;;-1.30;99.90;;;;;;7395558;19;20308;-79
2021/12/09 06:59:44;;;;;;;19.53;15.10;;;-1.20;99.90;;;;;;7387388;19;20379;-79
2021/12/09 07:02:10;;;;;;;24.50;15.10;;;-1.20;99.90;;;;;;7387439;19;20321;-80
2021/12/09 07:04:36;;;;;;;21.23;15.52;;;-1.30;99.90;;;;;;7386695;19;20897;-80
2021/12/09 07:07:01;;;;;;;19.23;14.25;;;-1.30;99.90;;;;;;7366839;19;20325;-79
2021/12/09 07:09:29;;;;;;;20.70;14.85;;;-1.30;99.90;;;;;;7390371;19;20326;-79
2021/12/09 07:11:56;;;;;;;21.38;14.85;;;-1.30;99.90;;;;;;7389659;19;20919;-80
2021/12/09 07:14:22;;;;;;;25.20;16.48;;;-1.30;99.90;;;;;;7390643;19;20396;-80
2021/12/09 07:16:47;;;;;;;19.02;14.93;;;-1.30;99.90;;;;;;7392934;19;20739;-79
2021/12/09 07:19:13;;;;;;;23.10;15.27;;;-1.40;99.90;;;;;;7372306;19;20343;-79
2021/12/09 07:21:41;;;;;;;21.47;14.50;;;-1.40;99.90;;;;;;7393118;19;20462;-80
2021/12/09 07:24:08;;;;;;;19.17;14.63;;;-1.40;99.90;;;;;;7389995;19;20320;-78
2021/12/09 07:26:40;;;;;;;16.73;13.70;;;-1.40;99.90;;;;;;7393407;19;20341;-80
2021/12/09 07:29:06;;;;;;;20.38;14.32;;;-1.30;99.90;;;;;;7369592;19;20656;-79
2021/12/09 07:31:33;;;;;;;18.73;13.88;;;-1.30;99.90;;;;;;7386547;19;20391;-79
2021/12/09 07:34:00;;;;;;;23.02;14.77;;;-1.30;99.90;;;;;;7386885;19;20329;-81
2021/12/09 07:36:26;;;;;;;19.60;14.30;;;-1.30;99.90;;;;;;7391442;19;20337;-81
2021/12/09 07:38:52;;;;;;;18.33;12.85;;;-1.20;99.90;;;;;;7388165;19;20328;-80
2021/12/09 07:41:18;;;;;;;24.27;14.63;;;-1.20;99.90;;;;;;7388843;19;20310;-81
2021/12/09 07:43:45;;;;;;;19.67;14.70;;;-1.10;99.90;;;;;;7386947;19;20330;-80
2021/12/09 07:46:11;;;;;;;17.05;12.52;;;-1.20;99.90;;;;;;7376290;19;20309;-80
2021/12/09 07:48:36;;;;;;;16.60;13.27;;;-1.10;99.90;;;;;;7392631;19;20415;-80
2021/12/09 07:51:02;;;;;;;15.63;12.48;;;-1.10;99.90;;;;;;7393296;19;20357;-80
2021/12/09 07:53:28;;;;;;;21.83;14.30;;;-1.00;99.90;;;;;;7386128;19;20320;-81
2021/12/09 07:55:54;;;;;;;17.63;13.30;;;-1.10;99.90;;;;;;7389691;19;20673;-80
2021/12/09 07:58:20;;;;;;;22.30;15.15;;;-1.10;99.90;;;;;;7388847;19;20351;-80
2021/12/09 08:00:46;;;;;;;17.00;13.20;;;-1.10;99.90;;;;;;7386601;19;20304;-79
2021/12/09 08:03:12;;;;;;;17.02;13.93;;;-1.20;99.90;;;;;;7386615;19;20321;-79
2021/12/09 08:05:39;;;;;;;18.40;13.98;;;-1.20;99.90;;;;;;7385368;19;20324;-80
2021/12/09 08:08:05;;;;;;;19.60;14.20;;;-1.20;99.90;;;;;;7392732;19;20337;-79
2021/12/09 08:10:31;;;;;;;14.67;13.00;;;-1.10;99.90;;;;;;7387610;19;20339;-79
2021/12/09 08:12:58;;;;;;;21.10;15.18;;;-1.10;99.90;;;;;;7376257;19;20308;-79
2021/12/09 08:15:25;;;;;;;19.52;13.40;;;-1.20;99.90;;;;;;7388363;19;20329;-80
2021/12/09 08:18:01;;;;;;;19.58;13.48;;;-1.00;99.90;;;;;;7387582;19;20320;-81
2021/12/09 08:20:27;;;;;;;21.02;14.35;;;-1.10;99.90;;;;;;7389783;19;20910;-80
2021/12/09 08:22:53;;;;;;;26.20;16.03;;;-1.10;99.90;;;;;;7390681;19;20321;-81
2021/12/09 08:25:18;;;;;;;22.80;15.52;;;-1.20;99.90;;;;;;7389734;19;20332;-81
2021/12/09 08:27:44;;;;;;;26.73;15.93;;;-1.20;99.90;;;;;;7391567;19;20348;-79
2021/12/09 08:30:16;;;;;;;24.38;16.13;;;-1.20;99.90;;;;;;7392157;19;20417;-80
2021/12/09 08:32:41;;;;;;;19.92;14.63;;;-1.10;99.90;;;;;;7391868;19;20381;-79
2021/12/09 08:35:07;;;;;;;22.00;16.15;;;-1.10;99.90;;;;;;7398988;19;20305;-79
2021/12/09 08:37:33;;;;;;;20.97;16.30;;;-1.00;99.90;;;;;;7393000;19;20325;-80
2021/12/09 08:39:59;;;;;;;19.40;14.47;;;-1.10;99.90;;;;;;7390748;19;20349;-81
2021/12/09 08:42:24;;;;;;;21.85;15.85;;;-1.10;99.90;;;;;;7391215;19;20323;-81
2021/12/09 08:44:51;;;;;;;24.20;16.33;;;-1.00;99.90;;;;;;7390681;19;20360;-80
2021/12/09 08:47:16;;;;;;;17.88;12.70;;;-1.00;99.90;;;;;;7389173;19;20346;-80
2021/12/09 08:49:42;;;;;;;19.73;15.23;;;-0.90;99.90;;;;;;7385955;19;20887;-80
2021/12/09 08:52:08;;;;;;;23.17;16.00;;;-0.80;99.90;;;;;;7394347;19;20327;-79
2021/12/09 08:54:33;;;;;;;21.85;15.25;;;-1.00;99.90;;;;;;7387382;19;20345;-81
2021/12/09 08:56:59;;;;;;;28.40;16.30;;;-1.00;99.90;;;;;;7388550;19;20317;-80
2021/12/09 08:59:26;;;;;;;19.13;15.43;;;-0.90;99.90;;;;;;7387649;19;20852;-81
2021/12/09 09:01:52;;;;;;;21.02;15.32;;;-0.90;99.90;;;;;;7387259;19;20332;-81
2021/12/09 09:04:18;;;;;;;21.58;14.55;;;-0.90;99.90;;;;;;7390575;19;20313;-81
2021/12/09 09:06:55;;;;;;;24.42;15.95;;;-0.90;99.90;;;;;;7383605;19;20293;-80
2021/12/09 09:09:21;;;;;;;22.65;16.02;;;-0.90;99.90;;;;;;7384933;19;20716;-80
2021/12/09 09:11:47;;;;;;;21.35;16.35;;;-0.90;99.90;;;;;;7393423;19;20909;-80
2021/12/09 09:14:13;;;;;;;21.45;16.23;;;-0.90;99.90;;;;;;7392721;19;21067;-79
2021/12/09 09:16:38;;;;;;;22.38;15.80;;;-0.90;99.90;;;;;;7392448;19;20316;-80
2021/12/09 09:19:05;;;;;;;24.70;16.17;;;-0.90;99.90;;;;;;7390731;19;20324;-79
2021/12/09 09:21:32;;;;;;;24.45;15.70;;;-0.90;99.90;;;;;;7393660;19;20328;-79
2021/12/09 09:23:58;;;;;;;23.15;15.65;;;-0.90;99.90;;;;;;7392744;19;20376;-80
2021/12/09 09:26:24;;;;;;;20.08;13.73;;;-0.80;99.90;;;;;;7391835;19;20296;-81
2021/12/09 09:28:49;;;;;;;22.10;15.10;;;-0.80;99.90;;;;;;7394125;19;20372;-81
2021/12/09 09:31:15;;;;;;;20.57;15.43;;;-0.70;99.90;;;;;;7395306;19;20353;-81
2021/12/09 09:33:41;;;;;;;15.60;13.40;;;-0.70;99.90;;;;;;7395509;19;20354;-80
2021/12/09 09:36:07;;;;;;;22.00;15.35;;;-0.70;99.90;;;;;;7394352;19;20323;-81
2021/12/09 09:38:33;;;;;;;20.17;14.45;;;-0.60;99.90;;;;;;7394268;19;20301;-82
2021/12/09 09:41:08;;;;;;;20.45;15.30;;;-0.60;99.90;;;;;;7394643;19;20340;-80
2021/12/09 09:46:19;;;;;;;17.80;12.10;;;-0.60;99.90;;;;;;7400060;19;20633;-82
2021/12/09 09:48:46;;;;;;;21.02;14.40;;;-0.50;99.90;;;;;;7404867;19;20305;-80
2021/12/09 09:51:12;;;;;;;22.95;16.25;;;-0.50;99.90;;;;;;7401997;19;20476;-81
2021/12/09 09:53:39;;;;;;;27.63;16.75;;;-0.50;99.90;;;;;;7397660;19;20360;-81
2021/12/09 09:56:13;;;;;;;22.45;16.25;;;-0.50;99.90;;;;;;7401146;19;20312;-80
2021/12/09 09:58:40;;;;;;;17.25;13.43;;;-0.50;99.90;;;;;;7372976;19;20332;-80
2021/12/09 10:01:05;;;;;;;20.85;12.68;;;-0.40;99.90;;;;;;7395829;19;20324;-80
2021/12/09 10:03:34;;;;;;;21.27;14.18;;;-0.40;99.90;;;;;;7393656;19;20862;-81
2021/12/09 10:06:02;;;;;;;20.53;15.33;;;-0.40;99.90;;;;;;7393841;19;20859;-83
2021/12/09 10:08:30;;;;;;;18.23;13.52;;;-0.30;99.90;;;;;;7390516;19;20937;-82
2021/12/09 10:10:56;;;;;;;19.23;14.10;;;-0.30;99.90;;;;;;7391501;19;20316;-80
2021/12/09 10:13:27;;;;;;;25.00;16.23;;;-0.10;99.90;;;;;;7382321;19;20346;-81
2021/12/09 10:15:52;;;;;;;20.23;14.95;;;-0.30;99.90;;;;;;7394164;19;20895;-80
2021/12/09 10:18:38;;;;;;;23.13;16.40;;;-0.20;99.90;;;;;;7394287;19;20313;-79
2021/12/09 10:21:08;;;;;;;21.70;15.63;;;-0.30;99.90;;;;;;7290238;19;2004626;-79
2021/12/09 10:23:50;;;;;;;20.88;14.40;;;-0.20;99.90;;;;;;7392935;19;21653;-79
2021/12/09 10:26:21;;;;;;;17.33;14.25;;;-0.10;99.90;;;;;;7291714;19;2004922;-81
2021/12/09 10:28:55;;;;;;;22.15;16.33;;;0.00;99.90;;;;;;7393046;19;20313;-80
2021/12/09 10:31:34;;;;;;;14.63;11.75;;;-0.10;99.90;;;;;;7392576;19;20305;-79
2021/12/09 10:37:02;;;;;;;18.63;13.63;;;0.10;99.90;;;;;;7288098;19;2004481;-82
2021/12/09 10:39:31;;;;;;;20.30;14.88;;;0.20;99.90;;;;;;7392933;19;20329;-82
2021/12/09 10:41:59;;;;;;;20.90;15.93;;;0.10;99.90;;;;;;7394531;19;20317;-79
2021/12/09 10:44:48;;;;;;;21.80;15.23;;;0.10;99.90;;;;;;7394484;19;20677;-82
2021/12/09 10:50:41;;;;;;;18.15;14.48;;;0.20;99.90;;;;;;7287706;19;2004321;-82
2021/12/09 10:55:53;;;;;;;21.52;15.45;;;0.20;99.90;;;;;;7398119;19;20309;-82
2021/12/09 10:58:41;;;;;;;24.35;16.23;;;0.10;99.90;;;;;;7393616;19;20331;-81
2021/12/09 11:01:21;;;;;;;24.42;16.08;;;0.10;99.90;;;;;;7267175;19;2004278;-82
2021/12/09 11:03:55;;;;;;;22.92;15.68;;;0.10;99.90;;;;;;7402620;19;20313;-82
2021/12/09 11:06:47;;;;;;;18.33;13.73;;;0.30;99.90;;;;;;7402294;19;20932;-81
2021/12/09 11:09:13;;;;;;;20.67;14.15;;;0.30;99.90;;;;;;7396257;19;20341;-80
2021/12/09 11:11:43;;;;;;;22.55;15.93;;;0.30;99.90;;;;;;7354174;19;20304;-80
2021/12/09 11:14:13;;;;;;;17.67;11.95;;;0.30;99.90;;;;;;7394430;19;20399;-82
2021/12/09 11:16:43;;;;;;;23.70;16.25;;;0.40;99.90;;;;;;7349992;19;20906;-81
2021/12/09 11:19:34;;;;;;;21.45;15.93;;;0.40;99.90;;;;;;7390931;19;20321;-80
2021/12/09 11:22:03;;;;;;;22.02;15.57;;;0.30;99.90;;;;;;7289858;19;2004579;-82
2021/12/09 11:24:36;;;;;;;17.63;14.18;;;0.20;99.90;;;;;;7390559;19;20305;-81
2021/12/09 11:27:09;;;;;;;22.80;14.95;;;0.10;99.90;;;;;;7391469;19;20293;-80
2021/12/09 11:30:10;;;;;;;20.90;15.45;;;0.10;99.90;;;;;;7341495;19;20337;-80
2021/12/09 11:32:52;;;;;;;23.95;17.10;;;0.10;99.90;;;;;;7289266;19;2004540;-82
2021/12/09 11:35:28;;;;;;;25.27;15.10;;;0.10;99.90;;;;;;7391004;19;20317;-81
2021/12/09 11:40:56;;;;;;;22.80;16.38;;;0.00;99.90;;;;;;7389702;19;20384;-81
2021/12/09 11:43:25;;;;;;;20.02;14.57;;;0.00;99.90;;;;;;7374370;19;20297;-84
2021/12/09 11:45:53;;;;;;;21.08;15.00;;;0.00;99.90;;;;;;7393647;19;20340;-81
2021/12/09 11:48:20;;;;;;;19.77;15.43;;;0.20;99.90;;;;;;7392087;19;20942;-80
2021/12/09 11:50:55;;;;;;;20.10;14.48;;;0.10;99.90;;;;;;7392632;19;20312;-81
2021/12/09 11:53:22;;;;;;;19.85;14.93;;;0.10;99.90;;;;;;7395168;19;20329;-80
2021/12/09 11:56:08;;;;;;;21.85;16.20;;;0.10;99.90;;;;;;7394885;19;20682;-82
2021/12/09 12:11:10;;;;;;;23.33;16.33;;;0.30;99.90;;;;;;7293163;19;2004171;-80
2021/12/09 12:13:54;;;;;;;23.33;17.45;;;0.20;99.90;;;;;;7292716;19;2004392;-82
2021/12/09 12:22:05;;;;;;;16.47;11.73;;;0.20;99.90;;;;;;7389850;19;20293;-80
2021/12/09 12:24:56;;;;;;;24.95;17.08;;;0.20;99.90;;;;;;7291947;19;2004426;-81
2021/12/09 12:27:59;;;;;;;23.63;16.83;;;0.30;99.90;;;;;;7393014;19;20744;-84
2021/12/09 12:31:14;;;;;;;24.35;15.82;;;0.30;99.90;;;;;;7283171;19;2004538;-81
2021/12/09 12:34:38;;;;;;;28.85;16.73;;;0.20;99.90;;;;;;7281567;19;2004217;-79
2021/12/09 12:37:19;;;;;;;21.80;14.40;;;0.20;99.90;;;;;;7181748;19;2004455;-81
2021/12/09 12:40:08;;;;;;;18.50;14.18;;;0.10;99.90;;;;;;7209418;19;2004512;-80
2021/12/09 12:43:08;;;;;;;21.63;14.45;;;0.10;99.90;;;;;;7391138;19;20323;-82
2021/12/09 12:51:42;;;;;;;15.57;11.98;;;0.20;99.90;;;;;;7287527;19;2004398;-81
2021/12/09 12:54:40;;;;;;;16.88;11.80;;;0.60;99.90;;;;;;7392954;19;20412;-81
2021/12/09 12:57:02;;;;;;;20.05;15.13;;;0.50;99.90;;;;;;7288005;19;2004387;-80
2021/12/09 12:59:40;;;;;;;18.63;13.65;;;0.60;99.90;;;;;;7366093;19;20327;-81
2021/12/09 13:05:04;;;;;;;18.25;13.38;;;0.50;99.90;;;;;;7290233;19;2004422;-82
2021/12/09 13:07:50;;;;;;;18.75;14.23;;;0.60;99.90;;;;;;7284263;19;2004682;-81
2021/12/09 13:10:27;;;;;;;19.07;13.17;;;0.60;99.90;;;;;;7283874;19;2005268;-81
2021/12/09 13:13:04;;;;;;;13.07;11.68;;;0.60;99.90;;;;;;7388998;19;20308;-81
2021/12/09 13:15:39;;;;;;;17.25;14.40;;;0.60;99.90;;;;;;7365196;19;20301;-81
2021/12/09 13:18:40;;;;;;;16.73;13.52;;;0.50;99.90;;;;;;7391558;19;20661;-81
2021/12/09 13:21:37;;;;;;;20.60;16.42;;;0.70;99.90;;;;;;7268415;19;2004427;-81
2021/12/09 13:24:30;;;;;;;18.17;15.13;;;0.40;99.90;;;;;;7269650;19;2004416;-81
2021/12/09 13:29:39;;;;;;;20.85;15.63;;;0.40;99.90;;;;;;7391411;19;20300;-82
2021/12/09 13:32:47;;;;;;;23.17;13.40;;;0.40;99.90;;;;;;7398432;19;20345;-82
2021/12/09 13:35:36;;;;;;;20.55;14.23;;;0.40;99.90;;;;;;7291397;19;2004771;-82
2021/12/09 13:49:04;;;;;;;20.42;14.85;;;0.30;99.90;;;;;;7390913;19;20305;-81
2021/12/09 13:54:24;;;;;;;23.33;16.15;;;0.30;99.90;;;;;;7391159;19;20326;-82
2021/12/09 13:57:21;;;;;;;17.98;14.30;;;0.20;99.90;;;;;;7289701;19;2004586;-83
2021/12/09 13:59:47;;;;;;;23.52;16.27;;;0.20;99.90;;;;;;7292446;19;2004565;-81
2021/12/09 14:02:16;;;;;;;17.10;13.00;;;0.20;99.90;;;;;;7400523;19;20670;-80
2021/12/09 14:04:43;;;;;;;21.20;14.00;;;0.30;99.90;;;;;;7395572;19;20877;-81
2021/12/09 14:07:15;;;;;;;20.52;14.02;;;0.30;99.90;;;;;;7400262;19;20317;-83
2021/12/09 14:10:06;;;;;;;23.50;14.93;;;0.20;99.90;;;;;;7395655;19;20657;-82
2021/12/09 14:12:45;;;;;;;22.02;14.15;;;0.30;99.90;;;;;;7295256;19;2004389;-82